Mikiona — WDD5057 — position and weather

sailwx.info

Track history (hours):
 
Tides and Currents Weather Stations Pressure Air Temp Water Temp Dewpoint Dewpoint Depression Visibility Wind Speed Wind Dir Waves Ship Positions

Mikiona

Owner: Sause Bros Inc, Coos Bay, OR. More information available from US FCC via Universal Licensing System and Coast Guard Vessel Documentation Center.

Last reported at 2017-Oct-21 22:33 UTC. Time now 2017-Oct-22 08:13 UTC.
Position N 37°24' W 123°04'.

Length 38 m; draft 4.5 m.

Type: Tow > 200 m length. MMSI: 367153070.

Date/timePositionNaut miles runAvg speedWind from/ knotsBaromVisibWave heightAir tempDewpointWater temp
2017-Oct-21 22:33N 37°24' W 123°04'1 7.8
2017-Oct-21 22:29N 37°25' W 123°04'6 7.5
2017-Oct-21 21:39N 37°31' W 123°04'1 7.3
2017-Oct-21 21:30N 37°32' W 123°04'10 6.7
2017-Oct-21 19:58N 37°39' W 122°54'3 7.0
2017-Oct-21 19:29N 37°41' W 122°51'3 6.7
2017-Oct-21 18:58N 37°43' W 122°47'3 6.6
2017-Oct-21 18:28N 37°44' W 122°43'3 6.2
2017-Oct-21 18:00N 37°45' W 122°40'3 5.4
2017-Oct-21 17:30N 37°46' W 122°37'2 5.0
2017-Oct-21 17:01N 37°47' W 122°34'3 5.3
2017-Oct-21 16:30N 37°48' W 122°31'3 5.7
2017-Oct-21 16:00N 37°49' W 122°28'3 6.2
2017-Oct-21 15:31N 37°52' W 122°25'3 5.3
2017-Oct-21 15:00N 37°54' W 122°26'0 0.2
2017-Oct-21 14:00N 37°54' W 122°26'0 0.0
2017-Oct-21 13:30N 37°54' W 122°26'0 0.0
2017-Oct-21 13:00N 37°54' W 122°26'0 0.0
2017-Oct-21 12:30N 37°54' W 122°26'0 0.0
2017-Oct-21 12:00N 37°54' W 122°26'0 0.0
2017-Oct-21 11:30N 37°54' W 122°26'0 0.0
2017-Oct-21 11:00N 37°54' W 122°26'0 0.1
2017-Oct-21 10:30N 37°54' W 122°26'0 0.1
2017-Oct-21 10:00N 37°54' W 122°26'0 0.0
2017-Oct-21 09:30N 37°54' W 122°26'0 0.0
2017-Oct-21 09:00N 37°54' W 122°26'0 0.0
2017-Oct-21 08:30N 37°54' W 122°26'0 0.0
2017-Oct-21 08:00N 37°54' W 122°26'0 0.0
2017-Oct-21 07:30N 37°54' W 122°26'0 0.0
2017-Oct-21 07:00N 37°54' W 122°26'0 0.1
2017-Oct-21 06:27N 37°54' W 122°26'0 0.0
2017-Oct-21 06:00N 37°54' W 122°26'0 0.0
2017-Oct-21 05:30N 37°54' W 122°26'0 0.1
2017-Oct-21 05:00N 37°54' W 122°26'0 0.1
2017-Oct-21 04:30N 37°54' W 122°26'0 0.0
2017-Oct-21 04:00N 37°54' W 122°26'0 0.0
2017-Oct-21 03:30N 37°54' W 122°26'0 0.0
2017-Oct-21 03:00N 37°54' W 122°26'0 0.4
2017-Oct-21 02:30N 37°54' W 122°26'0 0.8
2017-Oct-21 02:00N 37°54' W 122°25'2 3.0
2017-Oct-21 01:30N 37°55' W 122°25'0 0.3
2017-Oct-21 01:00N 37°55' W 122°25'0 0.3
2017-Oct-21 00:29N 37°55' W 122°25'0 0.0
2017-Oct-20 23:59N 37°55' W 122°25'0 0.0
2017-Oct-20 23:29N 37°55' W 122°25'0 0.0
2017-Oct-20 22:59N 37°55' W 122°25'0 0.0
2017-Oct-20 22:29N 37°55' W 122°25'0 0.0
2017-Oct-20 21:59N 37°55' W 122°25'0 0.0
2017-Oct-20 21:29N 37°55' W 122°25'0 0.0
2017-Oct-20 20:59N 37°55' W 122°25'0 0.0
2017-Oct-20 20:29N 37°55' W 122°25'0 0.0
2017-Oct-20 19:53N 37°55' W 122°25'0 0.0
2017-Oct-20 19:29N 37°55' W 122°25'0 0.0
2017-Oct-20 18:56N 37°55' W 122°25'0 0.0
2017-Oct-20 18:29N 37°55' W 122°25'0 0.0
2017-Oct-20 17:59N 37°55' W 122°25'0 0.0
2017-Oct-20 17:23N 37°55' W 122°25'0 0.0
2017-Oct-20 16:53N 37°55' W 122°25'0 0.0
2017-Oct-20 16:26N 37°55' W 122°25'0 0.0
2017-Oct-20 15:53N 37°55' W 122°25'0 0.0
2017-Oct-20 15:17N 37°55' W 122°25'0 0.0
2017-Oct-20 14:53N 37°55' W 122°25'0 0.0
2017-Oct-20 14:29N 37°55' W 122°25'0 0.0
2017-Oct-20 13:29N 37°55' W 122°25'0 0.0
2017-Oct-20 12:59N 37°55' W 122°25'0 0.0
2017-Oct-20 12:29N 37°55' W 122°25'0 0.0
2017-Oct-20 11:59N 37°55' W 122°25'0 0.0
2017-Oct-20 11:29N 37°55' W 122°25'0 0.0
2017-Oct-20 10:56N 37°55' W 122°25'0 0.0
2017-Oct-20 10:29N 37°55' W 122°25'0 0.0
2017-Oct-20 09:59N 37°55' W 122°25'0 0.0
2017-Oct-20 09:29N 37°55' W 122°25'0 0.0
2017-Oct-20 08:59N 37°55' W 122°25'0 0.0
2017-Oct-20 08:29N 37°55' W 122°25'0 0.0
2017-Oct-20 07:59N 37°55' W 122°25'0 0.0
2017-Oct-20 07:29N 37°55' W 122°25'0 0.0
2017-Oct-20 06:53N 37°55' W 122°25'0 0.0
2017-Oct-20 06:23N 37°55' W 122°25'0 0.0
2017-Oct-20 05:59N 37°55' W 122°25'0 0.0
2017-Oct-20 05:29N 37°55' W 122°25'0 0.0
2017-Oct-20 04:59N 37°55' W 122°25'0 0.0
2017-Oct-20 04:29N 37°55' W 122°25'0 0.0
2017-Oct-20 03:59N 37°55' W 122°25'0 0.0
2017-Oct-20 03:29N 37°55' W 122°25'0 0.0
2017-Oct-20 02:53N 37°55' W 122°25'0 0.0
2017-Oct-20 02:29N 37°55' W 122°25'0 0.0
2017-Oct-20 01:59N 37°55' W 122°25'0 0.0
2017-Oct-20 01:17N 37°55' W 122°25'0 0.0
2017-Oct-20 00:59N 37°55' W 122°25'0 0.0
2017-Oct-20 00:29N 37°55' W 122°25'0 0.0
2017-Oct-19 23:59N 37°55' W 122°25'0 0.0
2017-Oct-19 23:29N 37°55' W 122°25'0 0.0
2017-Oct-19 22:59N 37°55' W 122°25'0 0.0
2017-Oct-19 22:29N 37°55' W 122°25'0 0.0
2017-Oct-19 21:59N 37°55' W 122°25'0 0.0
2017-Oct-19 21:29N 37°55' W 122°25'0 0.0
2017-Oct-19 20:59N 37°55' W 122°25'0 0.0
2017-Oct-19 20:29N 37°55' W 122°25'0 0.0
2017-Oct-19 18:59N 37°55' W 122°25'0 0.5
2017-Oct-19 18:29N 37°55' W 122°25'0 0.1
2017-Oct-19 18:00N 37°55' W 122°25'1 2.2
2017-Oct-19 17:29N 37°55' W 122°26'0 0.2
2017-Oct-19 16:26N 37°55' W 122°26'0 0.0
2017-Oct-19 14:17N 37°55' W 122°26'0 0.0
2017-Oct-19 13:59N 37°55' W 122°26'0 0.0
2017-Oct-19 13:14N 37°55' W 122°26'0 0.0
2017-Oct-19 12:56N 37°55' W 122°26'0 0.0
2017-Oct-19 12:29N 37°55' W 122°26'0 0.0
2017-Oct-19 11:59N 37°55' W 122°26'0 0.0
2017-Oct-19 11:29N 37°55' W 122°26'0 0.0
2017-Oct-19 11:00N 37°55' W 122°26'0 0.0
2017-Oct-19 10:29N 37°55' W 122°26'0 0.0
2017-Oct-19 09:59N 37°55' W 122°26'0 0.0
2017-Oct-19 09:29N 37°55' W 122°26'0 0.1
2017-Oct-19 08:59N 37°55' W 122°26'0 0.1
2017-Oct-19 08:23N 37°55' W 122°26'0 0.0
2017-Oct-19 07:59N 37°55' W 122°26'0 0.0
2017-Oct-19 07:29N 37°55' W 122°26'0 0.3
2017-Oct-19 06:56N 37°55' W 122°26'3 7.5
2017-Oct-19 06:30N 37°54' W 122°22'1 1.3
2017-Oct-19 05:54N 37°55' W 122°22'0 0.0
2017-Oct-19 05:27N 37°55' W 122°22'0 0.0
2017-Oct-19 05:00N 37°55' W 122°22'0 0.0
2017-Oct-19 04:18N 37°55' W 122°22'0 0.0
2017-Oct-19 03:51N 37°55' W 122°22'0 0.0
2017-Oct-19 03:27N 37°55' W 122°22'0 0.0
2017-Oct-19 02:57N 37°55' W 122°22'0 0.0
2017-Oct-19 02:30N 37°55' W 122°22'0 0.0
2017-Oct-19 02:01N 37°55' W 122°22'2 3.3
2017-Oct-19 01:30N 37°54' W 122°24'2 3.6
2017-Oct-19 01:00N 37°55' W 122°26'1 2.2
2017-Oct-19 00:30N 37°54' W 122°26'3 6.0
2017-Oct-19 00:00N 37°51' W 122°24'4 7.3
2017-Oct-18 23:30N 37°49' W 122°29'3 5.9
2017-Oct-18 23:00N 37°48' W 122°32'3 6.0
2017-Oct-18 22:30N 37°47' W 122°35'3 6.6
2017-Oct-18 22:00N 37°45' W 122°39'3 6.7
2017-Oct-18 21:30N 37°41' W 122°39'4 7.7
2017-Oct-18 21:00N 37°38' W 122°39'4 8.8
2017-Oct-18 20:30N 37°33' W 122°39'4 8.8
2017-Oct-18 20:00N 37°29' W 122°39'4 9.0
2017-Oct-18 19:30N 37°24' W 122°39'5 9.0
2017-Oct-18 19:00N 37°20' W 122°39'5 9.1
2017-Oct-18 18:30N 37°15' W 122°40'5 9.2
2017-Oct-18 18:00N 37°11' W 122°40'5 9.1
2017-Oct-18 17:30N 37°06' W 122°40'7 8.9
2017-Oct-18 16:46N 36°59' W 122°40'2 8.9
2017-Oct-18 16:30N 36°57' W 122°40'4 8.9
2017-Oct-18 16:00N 36°53' W 122°40'8 8.8
2017-Oct-18 15:06N 36°45' W 122°39'1 8.7
2017-Oct-18 15:00N 36°44' W 122°39'9 8.5
2017-Oct-18 13:58N 36°35' W 122°38'4 7.9
2017-Oct-18 13:25N 36°31' W 122°36'3 7.9
2017-Oct-18 12:59N 36°28' W 122°34'4 8.2
2017-Oct-18 12:30N 36°24' W 122°32'4 8.2
2017-Oct-18 12:00N 36°21' W 122°30'8 7.8
2017-Oct-18 10:59N 36°13' W 122°26'7 8.0
2017-Oct-18 10:08N 36°07' W 122°22'1 7.7
2017-Oct-18 10:00N 36°06' W 122°22'5 7.7
2017-Oct-18 09:24N 36°02' W 122°19'4 7.8
2017-Oct-18 08:53N 35°59' W 122°16'4 7.9
2017-Oct-18 08:19N 35°55' W 122°13'2 7.8
2017-Oct-18 08:00N 35°53' W 122°12'4 8.2
2017-Oct-18 07:30N 35°49' W 122°09'4 8.4
2017-Oct-18 07:00N 35°46' W 122°06'5 8.4
2017-Oct-18 06:22N 35°41' W 122°03'51 8.7
2017-Oct-18 00:29N 34°57' W 121°31'4 8.8
2017-Oct-18 00:00N 34°53' W 121°28'7 8.6
2017-Oct-17 23:08N 34°47' W 121°24'1 9.2
2017-Oct-17 23:01N 34°46' W 121°23'5 9.3
2017-Oct-17 22:31N 34°42' W 121°20'5 9.1
2017-Oct-17 22:00N 34°38' W 121°17'4 9.2
2017-Oct-17 21:31N 34°34' W 121°14'5 9.0
2017-Oct-17 21:00N 34°30' W 121°11'5 9.0
2017-Oct-17 20:28N 34°26' W 121°08'4 9.1
2017-Oct-17 20:00N 34°23' W 121°06'5 9.0
2017-Oct-17 19:30N 34°19' W 121°03'4 8.7
2017-Oct-17 19:00N 34°15' W 121°00'5 8.8
2017-Oct-17 18:29N 34°11' W 120°57'5 8.6
2017-Oct-17 17:58N 34°07' W 120°54'4 8.3
2017-Oct-17 17:28N 34°04' W 120°52'4 8.1
2017-Oct-17 17:00N 34°01' W 120°49'4 8.8
2017-Oct-17 16:30N 33°59' W 120°44'5 9.1
2017-Oct-17 15:59N 33°56' W 120°39'4 9.1
2017-Oct-17 15:30N 33°54' W 120°35'5 9.3
2017-Oct-17 15:00N 33°52' W 120°30'4 9.0
2017-Oct-17 14:30N 33°50' W 120°25'5 9.0
2017-Oct-17 14:00N 33°47' W 120°20'5 9.0
2017-Oct-17 13:30N 33°45' W 120°16'4 8.9
2017-Oct-17 13:00N 33°43' W 120°11'5 8.7
2017-Oct-17 12:25N 33°43' W 120°05'4 8.6
2017-Oct-17 12:00N 33°42' W 120°01'5 9.2
2017-Oct-17 11:30N 33°42' W 119°55'5 9.1
2017-Oct-17 10:59N 33°42' W 119°50'5 9.2
2017-Oct-17 10:30N 33°42' W 119°44'5 9.3
2017-Oct-17 10:00N 33°41' W 119°39'5 9.4
2017-Oct-17 09:30N 33°41' W 119°33'5 9.4
2017-Oct-17 09:00N 33°41' W 119°27'5 9.1
2017-Oct-17 08:29N 33°40' W 119°22'5 9.2
2017-Oct-17 07:56N 33°40' W 119°16'4 9.7
2017-Oct-17 07:30N 33°40' W 119°11'5 9.5
2017-Oct-17 06:59N 33°39' W 119°05'5 9.1
2017-Oct-17 06:29N 33°39' W 118°59'4 9.1
2017-Oct-17 06:00N 33°40' W 118°54'5 9.2
2017-Oct-17 05:30N 33°40' W 118°48'5 9.1
2017-Oct-17 04:55N 33°40' W 118°42'4 9.0
2017-Oct-17 04:30N 33°39' W 118°38'5 9.0
2017-Oct-17 03:59N 33°39' W 118°32'5 9.2
2017-Oct-17 03:28N 33°39' W 118°26'5 9.2
2017-Oct-17 02:56N 33°39' W 118°20'6 7.2
2017-Oct-17 02:09N 33°42' W 118°15'1 7.0
2017-Oct-17 02:00N 33°43' W 118°15'1 2.2
2017-Oct-17 01:30N 33°44' W 118°16'2 1.1
2017-Oct-16 23:31N 33°46' W 118°16'0 2.9
2017-Oct-16 23:29N 33°46' W 118°16'3 5.7
2017-Oct-16 22:59N 33°43' W 118°15'4 5.0
2017-Oct-16 22:16N 33°46' W 118°13'0 0.1
2017-Oct-16 21:40N 33°46' W 118°13'0 0.0
2017-Oct-16 21:28N 33°46' W 118°13'0 0.0
2017-Oct-16 20:40N 33°46' W 118°13'0 0.0
2017-Oct-16 20:22N 33°46' W 118°13'0 0.0
2017-Oct-16 19:58N 33°46' W 118°13'0 0.0
2017-Oct-16 19:28N 33°46' W 118°13'0 0.0
2017-Oct-16 18:52N 33°46' W 118°13'0 0.0
2017-Oct-16 18:28N 33°46' W 118°13'0 0.0
2017-Oct-16 17:58N 33°46' W 118°13'0 0.0
2017-Oct-16 05:07N 33°46' W 118°13'0 0.0
2017-Oct-16 04:43N 33°46' W 118°13'0 0.0
2017-Oct-16 04:25N 33°46' W 118°13'0 0.0
2017-Oct-16 03:49N 33°46' W 118°13'0 0.0
2017-Oct-16 03:19N 33°46' W 118°13'0 0.0
2017-Oct-16 02:00N 33°46' W 118°13'0 0.0
2017-Oct-16 01:29N 33°46' W 118°13'0 0.0
2017-Oct-16 01:00N 33°46' W 118°13'0 0.0
2017-Oct-16 00:30N 33°46' W 118°13'0 0.0
2017-Oct-16 00:00N 33°46' W 118°13'0 0.0
2017-Oct-15 23:30N 33°46' W 118°13'0 0.0
2017-Oct-15 23:00N 33°46' W 118°13'0 0.0
2017-Oct-15 22:30N 33°46' W 118°13'0 0.0
2017-Oct-15 22:00N 33°46' W 118°13'0 0.0
2017-Oct-15 21:30N 33°46' W 118°13'0 0.0
2017-Oct-15 21:00N 33°46' W 118°13'0 0.0
2017-Oct-15 20:30N 33°46' W 118°13'2 4.3
2017-Oct-15 20:00N 33°44' W 118°13'3 5.1
2017-Oct-15 19:30N 33°45' W 118°16'1 2.2
2017-Oct-15 19:00N 33°46' W 118°16'0 0.2
2017-Oct-15 18:30N 33°46' W 118°16'2 4.2
2017-Oct-15 18:00N 33°44' W 118°16'1 1.4
2017-Oct-15 17:30N 33°43' W 118°16'2 4.6
2017-Oct-15 17:00N 33°41' W 118°14'3 5.9
2017-Oct-15 16:31N 33°39' W 118°15'3 5.1
2017-Oct-15 16:00N 33°36' W 118°17'3 6.2
2017-Oct-15 15:30N 33°36' W 118°20'3 7.0
2017-Oct-15 15:01N 33°36' W 118°24'8 7.8
2017-Oct-15 14:00N 33°37' W 118°34'4 7.9
2017-Oct-15 13:30N 33°37' W 118°39'4 7.8
2017-Oct-15 13:01N 33°37' W 118°43'4 7.5
2017-Oct-15 12:31N 33°37' W 118°48'4 7.8
2017-Oct-15 12:01N 33°37' W 118°52'4 7.6
2017-Oct-15 11:31N 33°37' W 118°57'4 7.4
2017-Oct-15 11:01N 33°38' W 119°01'4 7.6
2017-Oct-15 10:31N 33°38' W 119°06'4 8.0
2017-Oct-15 10:01N 33°39' W 119°10'4 8.1
2017-Oct-15 09:30N 33°40' W 119°15'4 8.0
2017-Oct-15 08:59N 33°40' W 119°20'4 8.1
2017-Oct-15 08:30N 33°40' W 119°25'4 7.6
2017-Oct-15 07:58N 33°40' W 119°30'4 7.4
2017-Oct-15 07:26N 33°40' W 119°35'3 7.2
2017-Oct-15 07:00N 33°41' W 119°38'4 7.2
2017-Oct-15 06:30N 33°41' W 119°43'4 7.4
2017-Oct-15 06:01N 33°41' W 119°47'4 7.8
2017-Oct-15 05:30N 33°42' W 119°52'4 7.7
2017-Oct-15 05:00N 33°42' W 119°56'4 7.8
2017-Oct-15 04:30N 33°42' W 120°01'5 8.0
2017-Oct-15 03:56N 33°43' W 120°06'4 7.9
2017-Oct-15 03:27N 33°43' W 120°11'4 7.8
2017-Oct-15 03:00N 33°43' W 120°15'4 7.8
2017-Oct-15 02:30N 33°44' W 120°20'4 8.0
2017-Oct-15 02:00N 33°44' W 120°25'4 7.8
2017-Oct-15 01:30N 33°44' W 120°29'4 7.7
2017-Oct-15 01:00N 33°45' W 120°34'4 7.5
2017-Oct-15 00:29N 33°46' W 120°38'4 8.5
2017-Oct-15 00:00N 33°50' W 120°41'4 8.4
2017-Oct-14 23:30N 33°53' W 120°44'4 8.3
2017-Oct-14 22:59N 33°57' W 120°46'4 8.2
2017-Oct-14 22:30N 34°00' W 120°49'4 8.2
2017-Oct-14 22:00N 34°03' W 120°52'4 8.0
2017-Oct-14 21:29N 34°07' W 120°55'4 8.0
2017-Oct-14 20:59N 34°10' W 120°57'4 8.1
2017-Oct-14 20:30N 34°13' W 120°60'4 7.8
2017-Oct-14 20:00N 34°17' W 121°02'4 7.6
2017-Oct-14 19:30N 34°20' W 121°05'4 7.8
2017-Oct-14 19:00N 34°23' W 121°08'5 8.1
2017-Oct-14 18:26N 34°27' W 121°11'4 8.2
2017-Oct-14 17:58N 34°30' W 121°13'4 8.0
2017-Oct-14 17:30N 34°33' W 121°16'4 8.0
2017-Oct-14 17:00N 34°37' W 121°18'4 8.0
2017-Oct-14 16:30N 34°40' W 121°21'4 7.9
2017-Oct-14 16:00N 34°43' W 121°24'4 7.8
2017-Oct-14 15:30N 34°47' W 121°26'7 7.9
2017-Oct-14 14:38N 34°52' W 121°31'1 7.9
2017-Oct-14 14:30N 34°53' W 121°32'4 8.0
2017-Oct-14 14:00N 34°57' W 121°35'4 7.6
2017-Oct-14 13:30N 34°60' W 121°37'4 7.1
2017-Oct-14 13:00N 35°03' W 121°39'3 6.9
2017-Oct-14 12:30N 35°06' W 121°42'4 7.3
2017-Oct-14 12:00N 35°09' W 121°44'3 7.0
2017-Oct-14 11:30N 35°12' W 121°46'4 7.0
2017-Oct-14 11:00N 35°14' W 121°49'3 6.9
2017-Oct-14 10:30N 35°17' W 121°51'3 6.9
2017-Oct-14 10:00N 35°20' W 121°53'3 6.9
2017-Oct-14 09:30N 35°23' W 121°56'3 6.8
2017-Oct-14 09:00N 35°26' W 121°58'3 6.9
2017-Oct-14 08:30N 35°29' W 122°00'3 7.0
2017-Oct-14 08:00N 35°32' W 122°03'4 7.1
2017-Oct-14 07:30N 35°35' W 122°05'4 7.0
2017-Oct-14 07:00N 35°38' W 122°07'4 7.2
2017-Oct-14 06:30N 35°41' W 122°10'4 7.4
2017-Oct-14 05:59N 35°44' W 122°12'21 7.2
2017-Oct-14 03:02N 36°02' W 122°27'1 7.1
2017-Oct-14 02:50N 36°03' W 122°28'3 7.4
2017-Oct-14 02:29N 36°05' W 122°30'5 7.8
2017-Oct-14 01:51N 36°09' W 122°32'3 8.0
2017-Oct-14 01:30N 36°12' W 122°34'4 7.8
2017-Oct-14 01:00N 36°16' W 122°36'4 7.7
2017-Oct-14 00:30N 36°19' W 122°37'4 7.8
2017-Oct-14 00:00N 36°23' W 122°39'4 7.8
2017-Oct-13 23:31N 36°26' W 122°41'4 7.7
2017-Oct-13 23:00N 36°30' W 122°43'4 7.6
2017-Oct-13 22:30N 36°33' W 122°45'4 7.5
2017-Oct-13 22:01N 36°37' W 122°47'4 7.5
2017-Oct-13 21:30N 36°40' W 122°48'4 7.6
2017-Oct-13 21:00N 36°44' W 122°51'4 7.5
2017-Oct-13 20:30N 36°47' W 122°52'4 7.4
2017-Oct-13 20:00N 36°51' W 122°54'4 7.5
2017-Oct-13 19:30N 36°54' W 122°56'4 7.3
2017-Oct-13 18:59N 36°58' W 122°58'3 7.2
2017-Oct-13 18:30N 37°01' W 122°60'4 7.7
2017-Oct-13 17:56N 37°05' W 123°01'3 7.8
2017-Oct-13 17:30N 37°08' W 123°01'4 7.8
2017-Oct-13 16:57N 37°13' W 123°02'4 7.8
2017-Oct-13 16:26N 37°17' W 123°03'3 7.7
2017-Oct-13 16:00N 37°20' W 123°03'4 7.6
2017-Oct-13 15:30N 37°24' W 123°04'4 7.7
2017-Oct-13 15:00N 37°27' W 123°04'4 7.8
2017-Oct-13 14:29N 37°32' W 123°04'3 6.8
2017-Oct-13 13:59N 37°35' W 123°03'11 7.0
2017-Oct-13 12:25N 37°41' W 122°52'3 7.0
2017-Oct-13 12:00N 37°43' W 122°49'5 6.6
2017-Oct-13 11:17N 37°45' W 122°44'2 6.3
2017-Oct-13 10:59N 37°46' W 122°41'3 6.5
2017-Oct-13 10:30N 37°46' W 122°37'3 6.2
2017-Oct-13 10:00N 37°47' W 122°34'4 7.1
2017-Oct-13 09:30N 37°49' W 122°30'4 7.1
2017-Oct-13 09:00N 37°50' W 122°25'3 5.8
2017-Oct-13 08:30N 37°53' W 122°25'1 2.3
2017-Oct-13 08:01N 37°54' W 122°26'1 2.6
2017-Oct-13 07:30N 37°55' W 122°25'0 1.0
2017-Oct-13 07:00N 37°55' W 122°25'0 0.3
2017-Oct-13 06:29N 37°55' W 122°25'0 0.0
2017-Oct-13 05:59N 37°55' W 122°25'0 0.0
2017-Oct-13 04:20N 37°55' W 122°25'0 0.0
2017-Oct-13 03:59N 37°55' W 122°25'0 0.0
2017-Oct-13 03:26N 37°55' W 122°25'0 0.0
2017-Oct-13 02:53N 37°55' W 122°25'0 0.0
2017-Oct-13 02:29N 37°55' W 122°25'0 0.0
2017-Oct-13 01:56N 37°55' W 122°25'0 0.0
2017-Oct-13 01:29N 37°55' W 122°25'0 0.0
2017-Oct-13 00:59N 37°55' W 122°25'0 0.0
2017-Oct-13 00:29N 37°55' W 122°25'0 0.0
2017-Oct-12 23:56N 37°55' W 122°25'0 0.0
2017-Oct-12 23:14N 37°55' W 122°25'0 0.0
2017-Oct-12 22:47N 37°55' W 122°25'0 0.0
2017-Oct-12 22:23N 37°55' W 122°25'0 0.0
2017-Oct-12 21:59N 37°55' W 122°25'0 0.0
2017-Oct-12 21:29N 37°55' W 122°25'0 0.0
2017-Oct-12 20:11N 37°55' W 122°25'0 0.0
2017-Oct-12 19:47N 37°55' W 122°25'0 0.0
2017-Oct-12 19:26N 37°55' W 122°25'0 0.0
2017-Oct-12 18:50N 37°55' W 122°25'0 0.0
2017-Oct-12 18:29N 37°55' W 122°25'0 0.0
2017-Oct-12 17:59N 37°55' W 122°25'0 0.0
2017-Oct-12 17:29N 37°55' W 122°25'0 0.0
2017-Oct-12 16:53N 37°55' W 122°25'0 0.0
2017-Oct-12 16:29N 37°55' W 122°25'0 0.0
2017-Oct-12 15:59N 37°55' W 122°25'0 0.0
2017-Oct-12 15:26N 37°55' W 122°25'0 0.0
2017-Oct-12 14:59N 37°55' W 122°25'0 0.0
2017-Oct-12 14:29N 37°55' W 122°25'0 0.0
2017-Oct-12 13:59N 37°55' W 122°25'0 0.0
2017-Oct-12 13:29N 37°55' W 122°25'0 0.0
2017-Oct-12 12:59N 37°55' W 122°25'0 0.0
2017-Oct-12 12:29N 37°55' W 122°25'0 0.0
2017-Oct-12 11:59N 37°55' W 122°25'0 0.0
2017-Oct-12 11:26N 37°55' W 122°25'0 0.0
2017-Oct-12 10:59N 37°55' W 122°25'0 0.0
2017-Oct-12 10:26N 37°55' W 122°25'0 0.0
2017-Oct-12 09:56N 37°55' W 122°25'0 0.2
2017-Oct-12 09:30N 37°55' W 122°24'0 0.7
2017-Oct-12 08:59N 37°55' W 122°25'0 0.3
2017-Oct-12 08:30N 37°55' W 122°25'2 4.9
2017-Oct-12 08:00N 37°55' W 122°22'1 1.4
2017-Oct-12 07:29N 37°55' W 122°22'0 0.0
2017-Oct-12 06:56N 37°55' W 122°22'0 0.0
2017-Oct-12 06:29N 37°55' W 122°22'0 0.0
2017-Oct-12 05:59N 37°55' W 122°22'0 0.0
2017-Oct-12 05:29N 37°55' W 122°22'0 0.0
2017-Oct-12 04:59N 37°55' W 122°22'0 0.0
2017-Oct-12 04:29N 37°55' W 122°22'0 0.0
2017-Oct-12 03:59N 37°55' W 122°22'0 0.0
2017-Oct-12 03:29N 37°55' W 122°22'0 0.0
2017-Oct-12 02:59N 37°55' W 122°22'0 0.0
2017-Oct-12 02:29N 37°55' W 122°22'0 0.0
2017-Oct-12 01:56N 37°55' W 122°22'0 0.0
2017-Oct-12 01:29N 37°55' W 122°22'0 0.0
2017-Oct-12 00:59N 37°55' W 122°22'0 0.0
2017-Oct-12 00:29N 37°55' W 122°22'0 0.0
2017-Oct-11 23:59N 37°55' W 122°22'0 0.0
2017-Oct-11 23:29N 37°55' W 122°22'0 0.0
2017-Oct-11 22:59N 37°55' W 122°22'  
Track history (hours):
 
Tides and Currents Weather Stations Pressure Air Temp Water Temp Dewpoint Dewpoint Depression Visibility Wind Speed Wind Dir Waves Ship Positions

Mikiona

Owner: Sause Bros Inc, Coos Bay, OR. More information available from US FCC via Universal Licensing System and Coast Guard Vessel Documentation Center.

Last reported at 2017-Oct-21 22:33 UTC. Time now 2017-Oct-22 08:13 UTC.
Position N 37°24' W 123°04'.

Length 38 m; draft 4.5 m.

Type: Tow > 200 m length. MMSI: 367153070.

Date/timePositionNaut miles runAvg speedWind from/ knotsBaromVisibWave heightAir tempDewpointWater temp
2017-Oct-21 22:33N 37°24' W 123°04'1 7.8
2017-Oct-21 22:29N 37°25' W 123°04'6 7.5
2017-Oct-21 21:39N 37°31' W 123°04'1 7.3
2017-Oct-21 21:30N 37°32' W 123°04'10 6.7
2017-Oct-21 19:58N 37°39' W 122°54'3 7.0
2017-Oct-21 19:29N 37°41' W 122°51'3 6.7
2017-Oct-21 18:58N 37°43' W 122°47'3 6.6
2017-Oct-21 18:28N 37°44' W 122°43'3 6.2
2017-Oct-21 18:00N 37°45' W 122°40'3 5.4
2017-Oct-21 17:30N 37°46' W 122°37'2 5.0
2017-Oct-21 17:01N 37°47' W 122°34'3 5.3
2017-Oct-21 16:30N 37°48' W 122°31'3 5.7
2017-Oct-21 16:00N 37°49' W 122°28'3 6.2
2017-Oct-21 15:31N 37°52' W 122°25'3 5.3
2017-Oct-21 15:00N 37°54' W 122°26'0 0.2
2017-Oct-21 14:00N 37°54' W 122°26'0 0.0
2017-Oct-21 13:30N 37°54' W 122°26'0 0.0
2017-Oct-21 13:00N 37°54' W 122°26'0 0.0
2017-Oct-21 12:30N 37°54' W 122°26'0 0.0
2017-Oct-21 12:00N 37°54' W 122°26'0 0.0
2017-Oct-21 11:30N 37°54' W 122°26'0 0.0
2017-Oct-21 11:00N 37°54' W 122°26'0 0.1
2017-Oct-21 10:30N 37°54' W 122°26'0 0.1
2017-Oct-21 10:00N 37°54' W 122°26'0 0.0
2017-Oct-21 09:30N 37°54' W 122°26'0 0.0
2017-Oct-21 09:00N 37°54' W 122°26'0 0.0
2017-Oct-21 08:30N 37°54' W 122°26'0 0.0
2017-Oct-21 08:00N 37°54' W 122°26'0 0.0
2017-Oct-21 07:30N 37°54' W 122°26'0 0.0
2017-Oct-21 07:00N 37°54' W 122°26'0 0.1
2017-Oct-21 06:27N 37°54' W 122°26'0 0.0
2017-Oct-21 06:00N 37°54' W 122°26'0 0.0
2017-Oct-21 05:30N 37°54' W 122°26'0 0.1
2017-Oct-21 05:00N 37°54' W 122°26'0 0.1
2017-Oct-21 04:30N 37°54' W 122°26'0 0.0
2017-Oct-21 04:00N 37°54' W 122°26'0 0.0
2017-Oct-21 03:30N 37°54' W 122°26'0 0.0
2017-Oct-21 03:00N 37°54' W 122°26'0 0.4
2017-Oct-21 02:30N 37°54' W 122°26'0 0.8
2017-Oct-21 02:00N 37°54' W 122°25'2 3.0
2017-Oct-21 01:30N 37°55' W 122°25'0 0.3
2017-Oct-21 01:00N 37°55' W 122°25'0 0.3
2017-Oct-21 00:29N 37°55' W 122°25'0 0.0
2017-Oct-20 23:59N 37°55' W 122°25'0 0.0
2017-Oct-20 23:29N 37°55' W 122°25'0 0.0
2017-Oct-20 22:59N 37°55' W 122°25'0 0.0
2017-Oct-20 22:29N 37°55' W 122°25'0 0.0
2017-Oct-20 21:59N 37°55' W 122°25'0 0.0
2017-Oct-20 21:29N 37°55' W 122°25'0 0.0
2017-Oct-20 20:59N 37°55' W 122°25'0 0.0
2017-Oct-20 20:29N 37°55' W 122°25'0 0.0
2017-Oct-20 19:53N 37°55' W 122°25'0 0.0
2017-Oct-20 19:29N 37°55' W 122°25'0 0.0
2017-Oct-20 18:56N 37°55' W 122°25'0 0.0
2017-Oct-20 18:29N 37°55' W 122°25'0 0.0
2017-Oct-20 17:59N 37°55' W 122°25'0 0.0
2017-Oct-20 17:23N 37°55' W 122°25'0 0.0
2017-Oct-20 16:53N 37°55' W 122°25'0 0.0
2017-Oct-20 16:26N 37°55' W 122°25'0 0.0
2017-Oct-20 15:53N 37°55' W 122°25'0 0.0
2017-Oct-20 15:17N 37°55' W 122°25'0 0.0
2017-Oct-20 14:53N 37°55' W 122°25'0 0.0
2017-Oct-20 14:29N 37°55' W 122°25'0 0.0
2017-Oct-20 13:29N 37°55' W 122°25'0 0.0
2017-Oct-20 12:59N 37°55' W 122°25'0 0.0
2017-Oct-20 12:29N 37°55' W 122°25'0 0.0
2017-Oct-20 11:59N 37°55' W 122°25'0 0.0
2017-Oct-20 11:29N 37°55' W 122°25'0 0.0
2017-Oct-20 10:56N 37°55' W 122°25'0 0.0
2017-Oct-20 10:29N 37°55' W 122°25'0 0.0
2017-Oct-20 09:59N 37°55' W 122°25'0 0.0
2017-Oct-20 09:29N 37°55' W 122°25'0 0.0
2017-Oct-20 08:59N 37°55' W 122°25'0 0.0
2017-Oct-20 08:29N 37°55' W 122°25'0 0.0
2017-Oct-20 07:59N 37°55' W 122°25'0 0.0
2017-Oct-20 07:29N 37°55' W 122°25'0 0.0
2017-Oct-20 06:53N 37°55' W 122°25'0 0.0
2017-Oct-20 06:23N 37°55' W 122°25'0 0.0
2017-Oct-20 05:59N 37°55' W 122°25'0 0.0
2017-Oct-20 05:29N 37°55' W 122°25'0 0.0
2017-Oct-20 04:59N 37°55' W 122°25'0 0.0
2017-Oct-20 04:29N 37°55' W 122°25'0 0.0
2017-Oct-20 03:59N 37°55' W 122°25'0 0.0
2017-Oct-20 03:29N 37°55' W 122°25'0 0.0
2017-Oct-20 02:53N 37°55' W 122°25'0 0.0
2017-Oct-20 02:29N 37°55' W 122°25'0 0.0
2017-Oct-20 01:59N 37°55' W 122°25'0 0.0
2017-Oct-20 01:17N 37°55' W 122°25'0 0.0
2017-Oct-20 00:59N 37°55' W 122°25'0 0.0
2017-Oct-20 00:29N 37°55' W 122°25'0 0.0
2017-Oct-19 23:59N 37°55' W 122°25'0 0.0
2017-Oct-19 23:29N 37°55' W 122°25'0 0.0
2017-Oct-19 22:59N 37°55' W 122°25'0 0.0
2017-Oct-19 22:29N 37°55' W 122°25'0 0.0
2017-Oct-19 21:59N 37°55' W 122°25'0 0.0
2017-Oct-19 21:29N 37°55' W 122°25'0 0.0
2017-Oct-19 20:59N 37°55' W 122°25'0 0.0
2017-Oct-19 20:29N 37°55' W 122°25'0 0.0
2017-Oct-19 18:59N 37°55' W 122°25'0 0.5
2017-Oct-19 18:29N 37°55' W 122°25'0 0.1
2017-Oct-19 18:00N 37°55' W 122°25'1 2.2
2017-Oct-19 17:29N 37°55' W 122°26'0 0.2
2017-Oct-19 16:26N 37°55' W 122°26'0 0.0
2017-Oct-19 14:17N 37°55' W 122°26'0 0.0
2017-Oct-19 13:59N 37°55' W 122°26'0 0.0
2017-Oct-19 13:14N 37°55' W 122°26'0 0.0
2017-Oct-19 12:56N 37°55' W 122°26'0 0.0
2017-Oct-19 12:29N 37°55' W 122°26'0 0.0
2017-Oct-19 11:59N 37°55' W 122°26'0 0.0
2017-Oct-19 11:29N 37°55' W 122°26'0 0.0
2017-Oct-19 11:00N 37°55' W 122°26'0 0.0
2017-Oct-19 10:29N 37°55' W 122°26'0 0.0
2017-Oct-19 09:59N 37°55' W 122°26'0 0.0
2017-Oct-19 09:29N 37°55' W 122°26'0 0.1
2017-Oct-19 08:59N 37°55' W 122°26'0 0.1
2017-Oct-19 08:23N 37°55' W 122°26'0 0.0
2017-Oct-19 07:59N 37°55' W 122°26'0 0.0
2017-Oct-19 07:29N 37°55' W 122°26'0 0.3
2017-Oct-19 06:56N 37°55' W 122°26'3 7.5
2017-Oct-19 06:30N 37°54' W 122°22'1 1.3
2017-Oct-19 05:54N 37°55' W 122°22'0 0.0
2017-Oct-19 05:27N 37°55' W 122°22'0 0.0
2017-Oct-19 05:00N 37°55' W 122°22'0 0.0
2017-Oct-19 04:18N 37°55' W 122°22'0 0.0
2017-Oct-19 03:51N 37°55' W 122°22'0 0.0
2017-Oct-19 03:27N 37°55' W 122°22'0 0.0
2017-Oct-19 02:57N 37°55' W 122°22'0 0.0
2017-Oct-19 02:30N 37°55' W 122°22'0 0.0
2017-Oct-19 02:01N 37°55' W 122°22'2 3.3
2017-Oct-19 01:30N 37°54' W 122°24'2 3.6
2017-Oct-19 01:00N 37°55' W 122°26'1 2.2
2017-Oct-19 00:30N 37°54' W 122°26'3 6.0
2017-Oct-19 00:00N 37°51' W 122°24'4 7.3
2017-Oct-18 23:30N 37°49' W 122°29'3 5.9
2017-Oct-18 23:00N 37°48' W 122°32'3 6.0
2017-Oct-18 22:30N 37°47' W 122°35'3 6.6
2017-Oct-18 22:00N 37°45' W 122°39'3 6.7
2017-Oct-18 21:30N 37°41' W 122°39'4 7.7
2017-Oct-18 21:00N 37°38' W 122°39'4 8.8
2017-Oct-18 20:30N 37°33' W 122°39'4 8.8
2017-Oct-18 20:00N 37°29' W 122°39'4 9.0
2017-Oct-18 19:30N 37°24' W 122°39'5 9.0
2017-Oct-18 19:00N 37°20' W 122°39'5 9.1
2017-Oct-18 18:30N 37°15' W 122°40'5 9.2
2017-Oct-18 18:00N 37°11' W 122°40'5 9.1
2017-Oct-18 17:30N 37°06' W 122°40'7 8.9
2017-Oct-18 16:46N 36°59' W 122°40'2 8.9
2017-Oct-18 16:30N 36°57' W 122°40'4 8.9
2017-Oct-18 16:00N 36°53' W 122°40'8 8.8
2017-Oct-18 15:06N 36°45' W 122°39'1 8.7
2017-Oct-18 15:00N 36°44' W 122°39'9 8.5
2017-Oct-18 13:58N 36°35' W 122°38'4 7.9
2017-Oct-18 13:25N 36°31' W 122°36'3 7.9
2017-Oct-18 12:59N 36°28' W 122°34'4 8.2
2017-Oct-18 12:30N 36°24' W 122°32'4 8.2
2017-Oct-18 12:00N 36°21' W 122°30'8 7.8
2017-Oct-18 10:59N 36°13' W 122°26'7 8.0
2017-Oct-18 10:08N 36°07' W 122°22'1 7.7
2017-Oct-18 10:00N 36°06' W 122°22'5 7.7
2017-Oct-18 09:24N 36°02' W 122°19'4 7.8
2017-Oct-18 08:53N 35°59' W 122°16'4 7.9
2017-Oct-18 08:19N 35°55' W 122°13'2 7.8
2017-Oct-18 08:00N 35°53' W 122°12'4 8.2
2017-Oct-18 07:30N 35°49' W 122°09'4 8.4
2017-Oct-18 07:00N 35°46' W 122°06'5 8.4
2017-Oct-18 06:22N 35°41' W 122°03'51 8.7
2017-Oct-18 00:29N 34°57' W 121°31'4 8.8
2017-Oct-18 00:00N 34°53' W 121°28'7 8.6
2017-Oct-17 23:08N 34°47' W 121°24'1 9.2
2017-Oct-17 23:01N 34°46' W 121°23'5 9.3
2017-Oct-17 22:31N 34°42' W 121°20'5 9.1
2017-Oct-17 22:00N 34°38' W 121°17'4 9.2
2017-Oct-17 21:31N 34°34' W 121°14'5 9.0
2017-Oct-17 21:00N 34°30' W 121°11'5 9.0
2017-Oct-17 20:28N 34°26' W 121°08'4 9.1
2017-Oct-17 20:00N 34°23' W 121°06'5 9.0
2017-Oct-17 19:30N 34°19' W 121°03'4 8.7
2017-Oct-17 19:00N 34°15' W 121°00'5 8.8
2017-Oct-17 18:29N 34°11' W 120°57'5 8.6
2017-Oct-17 17:58N 34°07' W 120°54'4 8.3
2017-Oct-17 17:28N 34°04' W 120°52'4 8.1
2017-Oct-17 17:00N 34°01' W 120°49'4 8.8
2017-Oct-17 16:30N 33°59' W 120°44'5 9.1
2017-Oct-17 15:59N 33°56' W 120°39'4 9.1
2017-Oct-17 15:30N 33°54' W 120°35'5 9.3
2017-Oct-17 15:00N 33°52' W 120°30'4 9.0
2017-Oct-17 14:30N 33°50' W 120°25'5 9.0
2017-Oct-17 14:00N 33°47' W 120°20'5 9.0
2017-Oct-17 13:30N 33°45' W 120°16'4 8.9
2017-Oct-17 13:00N 33°43' W 120°11'5 8.7
2017-Oct-17 12:25N 33°43' W 120°05'4 8.6
2017-Oct-17 12:00N 33°42' W 120°01'5 9.2
2017-Oct-17 11:30N 33°42' W 119°55'5 9.1
2017-Oct-17 10:59N 33°42' W 119°50'5 9.2
2017-Oct-17 10:30N 33°42' W 119°44'5 9.3
2017-Oct-17 10:00N 33°41' W 119°39'5 9.4
2017-Oct-17 09:30N 33°41' W 119°33'5 9.4
2017-Oct-17 09:00N 33°41' W 119°27'5 9.1
2017-Oct-17 08:29N 33°40' W 119°22'5 9.2
2017-Oct-17 07:56N 33°40' W 119°16'4 9.7
2017-Oct-17 07:30N 33°40' W 119°11'5 9.5
2017-Oct-17 06:59N 33°39' W 119°05'5 9.1
2017-Oct-17 06:29N 33°39' W 118°59'4 9.1
2017-Oct-17 06:00N 33°40' W 118°54'5 9.2
2017-Oct-17 05:30N 33°40' W 118°48'5 9.1
2017-Oct-17 04:55N 33°40' W 118°42'4 9.0
2017-Oct-17 04:30N 33°39' W 118°38'5 9.0
2017-Oct-17 03:59N 33°39' W 118°32'5 9.2
2017-Oct-17 03:28N 33°39' W 118°26'5 9.2
2017-Oct-17 02:56N 33°39' W 118°20'6 7.2
2017-Oct-17 02:09N 33°42' W 118°15'1 7.0
2017-Oct-17 02:00N 33°43' W 118°15'1 2.2
2017-Oct-17 01:30N 33°44' W 118°16'2 1.1
2017-Oct-16 23:31N 33°46' W 118°16'0 2.9
2017-Oct-16 23:29N 33°46' W 118°16'3 5.7
2017-Oct-16 22:59N 33°43' W 118°15'4 5.0
2017-Oct-16 22:16N 33°46' W 118°13'0 0.1
2017-Oct-16 21:40N 33°46' W 118°13'0 0.0
2017-Oct-16 21:28N 33°46' W 118°13'0 0.0
2017-Oct-16 20:40N 33°46' W 118°13'0 0.0
2017-Oct-16 20:22N 33°46' W 118°13'0 0.0
2017-Oct-16 19:58N 33°46' W 118°13'0 0.0
2017-Oct-16 19:28N 33°46' W 118°13'0 0.0
2017-Oct-16 18:52N 33°46' W 118°13'0 0.0
2017-Oct-16 18:28N 33°46' W 118°13'0 0.0
2017-Oct-16 17:58N 33°46' W 118°13'0 0.0
2017-Oct-16 05:07N 33°46' W 118°13'0 0.0
2017-Oct-16 04:43N 33°46' W 118°13'0 0.0
2017-Oct-16 04:25N 33°46' W 118°13'0 0.0
2017-Oct-16 03:49N 33°46' W 118°13'0 0.0
2017-Oct-16 03:19N 33°46' W 118°13'0 0.0
2017-Oct-16 02:00N 33°46' W 118°13'0 0.0
2017-Oct-16 01:29N 33°46' W 118°13'0 0.0
2017-Oct-16 01:00N 33°46' W 118°13'0 0.0
2017-Oct-16 00:30N 33°46' W 118°13'0 0.0
2017-Oct-16 00:00N 33°46' W 118°13'0 0.0
2017-Oct-15 23:30N 33°46' W 118°13'0 0.0
2017-Oct-15 23:00N 33°46' W 118°13'0 0.0
2017-Oct-15 22:30N 33°46' W 118°13'0 0.0
2017-Oct-15 22:00N 33°46' W 118°13'0 0.0
2017-Oct-15 21:30N 33°46' W 118°13'0 0.0
2017-Oct-15 21:00N 33°46' W 118°13'0 0.0
2017-Oct-15 20:30N 33°46' W 118°13'2 4.3
2017-Oct-15 20:00N 33°44' W 118°13'3 5.1
2017-Oct-15 19:30N 33°45' W 118°16'1 2.2
2017-Oct-15 19:00N 33°46' W 118°16'0 0.2
2017-Oct-15 18:30N 33°46' W 118°16'2 4.2
2017-Oct-15 18:00N 33°44' W 118°16'1 1.4
2017-Oct-15 17:30N 33°43' W 118°16'2 4.6
2017-Oct-15 17:00N 33°41' W 118°14'3 5.9
2017-Oct-15 16:31N 33°39' W 118°15'3 5.1
2017-Oct-15 16:00N 33°36' W 118°17'3 6.2
2017-Oct-15 15:30N 33°36' W 118°20'3 7.0
2017-Oct-15 15:01N 33°36' W 118°24'8 7.8
2017-Oct-15 14:00N 33°37' W 118°34'4 7.9
2017-Oct-15 13:30N 33°37' W 118°39'4 7.8
2017-Oct-15 13:01N 33°37' W 118°43'4 7.5
2017-Oct-15 12:31N 33°37' W 118°48'4 7.8
2017-Oct-15 12:01N 33°37' W 118°52'4 7.6
2017-Oct-15 11:31N 33°37' W 118°57'4 7.4
2017-Oct-15 11:01N 33°38' W 119°01'4 7.6
2017-Oct-15 10:31N 33°38' W 119°06'4 8.0
2017-Oct-15 10:01N 33°39' W 119°10'4 8.1
2017-Oct-15 09:30N 33°40' W 119°15'4 8.0
2017-Oct-15 08:59N 33°40' W 119°20'4 8.1
2017-Oct-15 08:30N 33°40' W 119°25'4 7.6
2017-Oct-15 07:58N 33°40' W 119°30'4 7.4
2017-Oct-15 07:26N 33°40' W 119°35'3 7.2
2017-Oct-15 07:00N 33°41' W 119°38'4 7.2
2017-Oct-15 06:30N 33°41' W 119°43'4 7.4
2017-Oct-15 06:01N 33°41' W 119°47'4 7.8
2017-Oct-15 05:30N 33°42' W 119°52'4 7.7
2017-Oct-15 05:00N 33°42' W 119°56'4 7.8
2017-Oct-15 04:30N 33°42' W 120°01'5 8.0
2017-Oct-15 03:56N 33°43' W 120°06'4 7.9
2017-Oct-15 03:27N 33°43' W 120°11'4 7.8
2017-Oct-15 03:00N 33°43' W 120°15'4 7.8
2017-Oct-15 02:30N 33°44' W 120°20'4 8.0
2017-Oct-15 02:00N 33°44' W 120°25'4 7.8
2017-Oct-15 01:30N 33°44' W 120°29'4 7.7
2017-Oct-15 01:00N 33°45' W 120°34'4 7.5
2017-Oct-15 00:29N 33°46' W 120°38'4 8.5
2017-Oct-15 00:00N 33°50' W 120°41'4 8.4
2017-Oct-14 23:30N 33°53' W 120°44'4 8.3
2017-Oct-14 22:59N 33°57' W 120°46'4 8.2
2017-Oct-14 22:30N 34°00' W 120°49'4 8.2
2017-Oct-14 22:00N 34°03' W 120°52'4 8.0
2017-Oct-14 21:29N 34°07' W 120°55'4 8.0
2017-Oct-14 20:59N 34°10' W 120°57'4 8.1
2017-Oct-14 20:30N 34°13' W 120°60'4 7.8
2017-Oct-14 20:00N 34°17' W 121°02'4 7.6
2017-Oct-14 19:30N 34°20' W 121°05'4 7.8
2017-Oct-14 19:00N 34°23' W 121°08'5 8.1
2017-Oct-14 18:26N 34°27' W 121°11'4 8.2
2017-Oct-14 17:58N 34°30' W 121°13'4 8.0
2017-Oct-14 17:30N 34°33' W 121°16'4 8.0
2017-Oct-14 17:00N 34°37' W 121°18'4 8.0
2017-Oct-14 16:30N 34°40' W 121°21'4 7.9
2017-Oct-14 16:00N 34°43' W 121°24'4 7.8
2017-Oct-14 15:30N 34°47' W 121°26'7 7.9
2017-Oct-14 14:38N 34°52' W 121°31'1 7.9
2017-Oct-14 14:30N 34°53' W 121°32'4 8.0
2017-Oct-14 14:00N 34°57' W 121°35'4 7.6
2017-Oct-14 13:30N 34°60' W 121°37'4 7.1
2017-Oct-14 13:00N 35°03' W 121°39'3 6.9
2017-Oct-14 12:30N 35°06' W 121°42'4 7.3
2017-Oct-14 12:00N 35°09' W 121°44'3 7.0
2017-Oct-14 11:30N 35°12' W 121°46'4 7.0
2017-Oct-14 11:00N 35°14' W 121°49'3 6.9
2017-Oct-14 10:30N 35°17' W 121°51'3 6.9
2017-Oct-14 10:00N 35°20' W 121°53'3 6.9
2017-Oct-14 09:30N 35°23' W 121°56'3 6.8
2017-Oct-14 09:00N 35°26' W 121°58'3 6.9
2017-Oct-14 08:30N 35°29' W 122°00'3 7.0
2017-Oct-14 08:00N 35°32' W 122°03'4 7.1
2017-Oct-14 07:30N 35°35' W 122°05'4 7.0
2017-Oct-14 07:00N 35°38' W 122°07'4 7.2
2017-Oct-14 06:30N 35°41' W 122°10'4 7.4
2017-Oct-14 05:59N 35°44' W 122°12'21 7.2
2017-Oct-14 03:02N 36°02' W 122°27'1 7.1
2017-Oct-14 02:50N 36°03' W 122°28'3 7.4
2017-Oct-14 02:29N 36°05' W 122°30'5 7.8
2017-Oct-14 01:51N 36°09' W 122°32'3 8.0
2017-Oct-14 01:30N 36°12' W 122°34'4 7.8
2017-Oct-14 01:00N 36°16' W 122°36'4 7.7
2017-Oct-14 00:30N 36°19' W 122°37'4 7.8
2017-Oct-14 00:00N 36°23' W 122°39'4 7.8
2017-Oct-13 23:31N 36°26' W 122°41'4 7.7
2017-Oct-13 23:00N 36°30' W 122°43'4 7.6
2017-Oct-13 22:30N 36°33' W 122°45'4 7.5
2017-Oct-13 22:01N 36°37' W 122°47'4 7.5
2017-Oct-13 21:30N 36°40' W 122°48'4 7.6
2017-Oct-13 21:00N 36°44' W 122°51'4 7.5
2017-Oct-13 20:30N 36°47' W 122°52'4 7.4
2017-Oct-13 20:00N 36°51' W 122°54'4 7.5
2017-Oct-13 19:30N 36°54' W 122°56'4 7.3
2017-Oct-13 18:59N 36°58' W 122°58'3 7.2
2017-Oct-13 18:30N 37°01' W 122°60'4 7.7
2017-Oct-13 17:56N 37°05' W 123°01'3 7.8
2017-Oct-13 17:30N 37°08' W 123°01'4 7.8
2017-Oct-13 16:57N 37°13' W 123°02'4 7.8
2017-Oct-13 16:26N 37°17' W 123°03'3 7.7
2017-Oct-13 16:00N 37°20' W 123°03'4 7.6
2017-Oct-13 15:30N 37°24' W 123°04'4 7.7
2017-Oct-13 15:00N 37°27' W 123°04'4 7.8
2017-Oct-13 14:29N 37°32' W 123°04'3 6.8
2017-Oct-13 13:59N 37°35' W 123°03'11 7.0
2017-Oct-13 12:25N 37°41' W 122°52'3 7.0
2017-Oct-13 12:00N 37°43' W 122°49'5 6.6
2017-Oct-13 11:17N 37°45' W 122°44'2 6.3
2017-Oct-13 10:59N 37°46' W 122°41'3 6.5
2017-Oct-13 10:30N 37°46' W 122°37'3 6.2
2017-Oct-13 10:00N 37°47' W 122°34'4 7.1
2017-Oct-13 09:30N 37°49' W 122°30'4 7.1
2017-Oct-13 09:00N 37°50' W 122°25'3 5.8
2017-Oct-13 08:30N 37°53' W 122°25'1 2.3
2017-Oct-13 08:01N 37°54' W 122°26'1 2.6
2017-Oct-13 07:30N 37°55' W 122°25'0 1.0
2017-Oct-13 07:00N 37°55' W 122°25'0 0.3
2017-Oct-13 06:29N 37°55' W 122°25'0 0.0
2017-Oct-13 05:59N 37°55' W 122°25'0 0.0
2017-Oct-13 04:20N 37°55' W 122°25'0 0.0
2017-Oct-13 03:59N 37°55' W 122°25'0 0.0
2017-Oct-13 03:26N 37°55' W 122°25'0 0.0
2017-Oct-13 02:53N 37°55' W 122°25'0 0.0
2017-Oct-13 02:29N 37°55' W 122°25'0 0.0
2017-Oct-13 01:56N 37°55' W 122°25'0 0.0
2017-Oct-13 01:29N 37°55' W 122°25'0 0.0
2017-Oct-13 00:59N 37°55' W 122°25'0 0.0
2017-Oct-13 00:29N 37°55' W 122°25'0 0.0
2017-Oct-12 23:56N 37°55' W 122°25'0 0.0
2017-Oct-12 23:14N 37°55' W 122°25'0 0.0
2017-Oct-12 22:47N 37°55' W 122°25'0 0.0
2017-Oct-12 22:23N 37°55' W 122°25'0 0.0
2017-Oct-12 21:59N 37°55' W 122°25'0 0.0
2017-Oct-12 21:29N 37°55' W 122°25'0 0.0
2017-Oct-12 20:11N 37°55' W 122°25'0 0.0
2017-Oct-12 19:47N 37°55' W 122°25'0 0.0
2017-Oct-12 19:26N 37°55' W 122°25'0 0.0
2017-Oct-12 18:50N 37°55' W 122°25'0 0.0
2017-Oct-12 18:29N 37°55' W 122°25'0 0.0
2017-Oct-12 17:59N 37°55' W 122°25'0 0.0
2017-Oct-12 17:29N 37°55' W 122°25'0 0.0
2017-Oct-12 16:53N 37°55' W 122°25'0 0.0
2017-Oct-12 16:29N 37°55' W 122°25'0 0.0
2017-Oct-12 15:59N 37°55' W 122°25'0 0.0
2017-Oct-12 15:26N 37°55' W 122°25'0 0.0
2017-Oct-12 14:59N 37°55' W 122°25'0 0.0
2017-Oct-12 14:29N 37°55' W 122°25'0 0.0
2017-Oct-12 13:59N 37°55' W 122°25'0 0.0
2017-Oct-12 13:29N 37°55' W 122°25'0 0.0
2017-Oct-12 12:59N 37°55' W 122°25'0 0.0
2017-Oct-12 12:29N 37°55' W 122°25'0 0.0
2017-Oct-12 11:59N 37°55' W 122°25'0 0.0
2017-Oct-12 11:26N 37°55' W 122°25'0 0.0
2017-Oct-12 10:59N 37°55' W 122°25'0 0.0
2017-Oct-12 10:26N 37°55' W 122°25'0 0.0
2017-Oct-12 09:56N 37°55' W 122°25'0 0.2
2017-Oct-12 09:30N 37°55' W 122°24'0 0.7
2017-Oct-12 08:59N 37°55' W 122°25'0 0.3
2017-Oct-12 08:30N 37°55' W 122°25'2 4.9
2017-Oct-12 08:00N 37°55' W 122°22'1 1.4
2017-Oct-12 07:29N 37°55' W 122°22'0 0.0
2017-Oct-12 06:56N 37°55' W 122°22'0 0.0
2017-Oct-12 06:29N 37°55' W 122°22'0 0.0
2017-Oct-12 05:59N 37°55' W 122°22'0 0.0
2017-Oct-12 05:29N 37°55' W 122°22'0 0.0
2017-Oct-12 04:59N 37°55' W 122°22'0 0.0
2017-Oct-12 04:29N 37°55' W 122°22'0 0.0
2017-Oct-12 03:59N 37°55' W 122°22'0 0.0
2017-Oct-12 03:29N 37°55' W 122°22'0 0.0
2017-Oct-12 02:59N 37°55' W 122°22'0 0.0
2017-Oct-12 02:29N 37°55' W 122°22'0 0.0
2017-Oct-12 01:56N 37°55' W 122°22'0 0.0
2017-Oct-12 01:29N 37°55' W 122°22'0 0.0
2017-Oct-12 00:59N 37°55' W 122°22'0 0.0
2017-Oct-12 00:29N 37°55' W 122°22'0 0.0
2017-Oct-11 23:59N 37°55' W 122°22'0 0.0
2017-Oct-11 23:29N 37°55' W 122°22'0 0.0
2017-Oct-11 22:59N 37°55' W 122°22'  

Dump ship's entire track history